Time;durP1;ratioP1;P1;durP2;ratioP2;P2;SDS_P1;SDS_P2;PMS_P1;PMS_P2;Temp;Humidity;BMP_temperature;BMP_pressure;BME280_temperature;BME280_humidity;BME280_pressure;Samples;Min_cycle;Max_cycle;Signal;HPM_P1;HPM_P2
2021/07/07 00:00:12;;;;;;;8.37;6.53;;;18.80;99.90;18.00;96472.00;;;;5085249;28;20233;-65
2021/07/07 00:03:01;;;;;;;7.13;6.37;;;18.60;99.90;18.10;96461.00;;;;5085907;28;20230;-66
2021/07/07 00:05:49;;;;;;;9.70;7.33;;;18.50;99.90;18.20;96458.00;;;;5086616;28;20731;-62
2021/07/07 00:08:39;;;;;;;7.60;6.50;;;18.50;99.90;18.10;96470.00;;;;5085988;28;20225;-64
2021/07/07 00:11:27;;;;;;;7.30;6.60;;;18.40;99.90;17.80;96467.00;;;;5085876;28;20227;-63
2021/07/07 00:14:18;;;;;;;10.67;7.17;;;18.40;99.90;17.90;96471.00;;;;5083503;28;20208;-65
2021/07/07 00:17:07;;;;;;;8.03;7.00;;;18.30;99.90;18.10;96467.00;;;;5077321;28;20701;-62
2021/07/07 00:19:56;;;;;;;9.10;6.93;;;18.30;99.90;17.90;96488.00;;;;5093920;28;20234;-62
2021/07/07 00:22:45;;;;;;;10.17;7.37;;;18.30;99.90;18.00;96468.00;;;;5104421;28;20222;-65
2021/07/07 00:25:34;;;;;;;8.73;6.37;;;18.30;99.90;18.10;96478.00;;;;5104458;28;20725;-63
2021/07/07 00:28:24;;;;;;;8.40;7.57;;;18.30;99.90;18.20;96483.00;;;;5105705;28;20199;-61
2021/07/07 00:31:15;;;;;;;8.90;6.37;;;18.30;99.90;18.00;96489.00;;;;5104528;28;20203;-62
2021/07/07 00:34:04;;;;;;;6.47;5.77;;;18.30;99.90;18.00;96488.00;;;;5104367;28;20203;-64
2021/07/07 00:36:53;;;;;;;7.97;6.40;;;18.30;99.90;17.90;96480.00;;;;5104761;28;20646;-61
2021/07/07 00:39:42;;;;;;;7.20;6.60;;;18.30;99.90;17.90;96480.00;;;;5104400;28;20222;-63
2021/07/07 00:42:31;;;;;;;7.77;5.97;;;18.30;99.90;17.90;96474.00;;;;5105425;28;20600;-62
2021/07/07 00:45:20;;;;;;;11.13;6.30;;;18.20;99.90;17.90;96464.00;;;;5103690;28;20692;-64
2021/07/07 00:48:10;;;;;;;8.50;6.87;;;18.30;99.90;17.60;96479.00;;;;5104481;28;20199;-65
2021/07/07 00:51:00;;;;;;;7.20;6.40;;;18.20;99.90;17.40;96479.00;;;;5098129;28;20202;-65
2021/07/07 00:53:51;;;;;;;8.00;7.27;;;18.10;99.90;17.30;96480.00;;;;5104391;28;20209;-63
2021/07/07 00:56:40;;;;;;;11.10;6.80;;;17.90;99.90;17.60;96487.00;;;;5104951;28;20601;-66
2021/07/07 00:59:30;;;;;;;9.17;6.97;;;17.90;99.90;17.50;96473.00;;;;5105471;28;20847;-63
2021/07/07 01:02:22;;;;;;;8.83;6.70;;;17.80;99.90;17.60;96475.00;;;;5094323;28;20230;-66
2021/07/07 01:05:16;;;;;;;7.37;6.67;;;17.90;99.90;17.60;96466.00;;;;5104048;28;20199;-66
2021/07/07 01:08:05;;;;;;;7.73;7.00;;;17.90;99.90;17.60;96470.00;;;;5103590;28;20211;-66
2021/07/07 01:10:56;;;;;;;7.93;6.80;;;17.80;99.90;17.40;96471.00;;;;5104560;28;20203;-67
2021/07/07 01:13:45;;;;;;;7.67;6.87;;;17.90;99.90;17.40;96468.00;;;;5105156;28;20199;-65
2021/07/07 01:16:34;;;;;;;10.80;7.20;;;17.80;99.90;17.50;96466.00;;;;5090731;28;20583;-65
2021/07/07 01:19:24;;;;;;;7.47;6.63;;;17.80;99.90;17.50;96469.00;;;;5098073;28;20591;-66
2021/07/07 01:22:14;;;;;;;9.97;7.03;;;17.80;99.90;17.50;96485.00;;;;5083610;28;20722;-65
2021/07/07 01:25:04;;;;;;;7.80;6.97;;;17.80;99.90;17.30;96489.00;;;;5073416;28;20207;-65
2021/07/07 01:27:53;;;;;;;7.30;6.30;;;17.80;99.90;17.40;96480.00;;;;5083766;28;20195;-66
2021/07/07 01:30:42;;;;;;;8.23;7.43;;;17.80;99.90;17.20;96485.00;;;;5083624;28;20701;-63
2021/07/07 01:33:31;;;;;;;7.37;6.70;;;17.70;99.90;17.10;96480.00;;;;5083948;28;20225;-66
2021/07/07 01:36:20;;;;;;;11.20;6.40;;;17.60;99.90;17.10;96484.00;;;;5083476;28;20579;-65
2021/07/07 01:39:11;;;;;;;8.93;7.27;;;17.60;99.90;17.10;96479.00;;;;5083832;28;20219;-65
2021/07/07 01:42:00;;;;;;;7.07;6.23;;;17.50;99.90;16.90;96477.00;;;;5083866;28;20227;-67
2021/07/07 01:44:49;;;;;;;8.27;7.37;;;17.40;99.90;16.60;96472.00;;;;5074884;28;20203;-65
2021/07/07 01:47:38;;;;;;;8.50;7.27;;;17.30;99.90;16.40;96471.00;;;;5084914;28;20207;-64
2021/07/07 01:50:28;;;;;;;9.37;7.13;;;17.10;99.90;16.50;96478.00;;;;5087635;28;20199;-66
2021/07/07 01:53:17;;;;;;;8.70;7.13;;;17.10;99.90;16.70;96480.00;;;;5076385;28;20227;-65
2021/07/07 01:56:08;;;;;;;8.40;6.83;;;17.00;99.90;16.80;96485.00;;;;5083799;28;20674;-67
2021/07/07 01:58:56;;;;;;;9.20;7.30;;;17.00;99.90;16.90;96479.00;;;;5083136;28;20685;-63
2021/07/07 02:01:45;;;;;;;8.23;7.43;;;17.10;99.90;16.70;96489.00;;;;5083272;28;20233;-66
2021/07/07 02:04:34;;;;;;;8.73;7.70;;;17.40;99.90;16.60;96489.00;;;;5083051;28;20278;-65
2021/07/07 02:07:23;;;;;;;9.03;7.57;;;17.00;99.90;16.70;96487.00;;;;5083327;28;20195;-65
2021/07/07 02:10:15;;;;;;;8.70;7.80;;;17.00;99.90;16.90;96490.00;;;;5083469;28;20210;-64
2021/07/07 02:13:06;;;;;;;7.67;6.63;;;17.00;99.90;17.00;96485.00;;;;5085097;28;20405;-63
2021/07/07 02:15:55;;;;;;;8.57;7.67;;;17.10;99.90;17.00;96480.00;;;;5065144;28;20207;-66
2021/07/07 02:18:44;;;;;;;8.53;6.37;;;17.10;99.90;16.70;96490.00;;;;5087950;28;20191;-61
2021/07/07 02:21:33;;;;;;;9.97;7.60;;;17.10;99.90;16.60;96495.00;;;;5087773;28;20737;-65
2021/07/07 02:24:22;;;;;;;11.63;8.13;;;17.10;99.90;16.60;96490.00;;;;5087333;28;20203;-65
2021/07/07 02:27:11;;;;;;;8.30;7.50;;;17.00;99.90;16.50;96486.00;;;;5087688;28;20210;-65
2021/07/07 02:30:02;;;;;;;10.87;7.27;;;17.00;99.90;16.40;96489.00;;;;5087392;28;20580;-62
2021/07/07 02:32:52;;;;;;;8.53;7.47;;;16.90;99.90;16.40;96493.00;;;;5075231;28;20624;-63
2021/07/07 02:35:43;;;;;;;11.20;7.73;;;16.90;99.90;16.40;96486.00;;;;5087858;28;20214;-65
2021/07/07 02:38:33;;;;;;;9.23;6.80;;;16.80;99.90;16.40;96495.00;;;;5088008;28;20202;-66
2021/07/07 02:41:21;;;;;;;10.87;7.80;;;16.80;99.90;16.00;96490.00;;;;5086715;28;20227;-65
2021/07/07 02:44:10;;;;;;;8.27;7.40;;;16.70;99.90;16.20;96501.00;;;;5087689;28;20207;-66
2021/07/07 02:47:01;;;;;;;9.17;7.13;;;16.60;99.90;16.10;96498.00;;;;5086942;28;20214;-67
2021/07/07 02:49:49;;;;;;;8.50;7.63;;;16.50;99.90;16.00;96511.00;;;;5086809;28;20200;-65
2021/07/07 02:52:39;;;;;;;11.50;8.67;;;16.50;99.90;16.00;96501.00;;;;5076559;28;20686;-64
2021/07/07 02:55:28;;;;;;;12.77;8.47;;;16.40;99.90;16.20;96505.00;;;;5087045;28;20204;-65
2021/07/07 02:58:17;;;;;;;10.47;8.07;;;16.40;99.90;16.40;96503.00;;;;5086513;28;20199;-66
2021/07/07 03:01:06;;;;;;;8.67;7.87;;;16.50;99.90;16.10;96498.00;;;;5086504;28;20614;-65
2021/07/07 03:03:56;;;;;;;8.53;7.63;;;16.50;99.90;15.80;96506.00;;;;5086423;28;20203;-67
2021/07/07 03:06:45;;;;;;;9.73;8.13;;;16.40;99.90;15.90;96500.00;;;;5086583;28;20210;-66
2021/07/07 03:09:34;;;;;;;11.80;8.77;;;16.30;99.90;16.00;96507.00;;;;5086269;28;20203;-65
2021/07/07 03:12:23;;;;;;;9.33;8.43;;;16.30;99.90;16.10;96502.00;;;;5086368;28;20733;-62
2021/07/07 03:15:13;;;;;;;9.63;7.70;;;16.40;99.90;16.20;96509.00;;;;5077780;28;20391;-65
2021/07/07 03:18:03;;;;;;;7.43;6.63;;;16.40;99.90;16.00;96507.00;;;;5085588;28;20678;-65
2021/07/07 03:20:54;;;;;;;8.33;7.30;;;16.40;99.90;15.80;96510.00;;;;5086422;28;20223;-66
2021/07/07 03:23:43;;;;;;;9.50;8.33;;;16.30;99.90;15.80;96511.00;;;;5085588;28;20199;-63
2021/07/07 03:26:33;;;;;;;9.17;8.23;;;16.30;99.90;15.70;96519.00;;;;5086471;28;20266;-65
2021/07/07 03:29:22;;;;;;;10.63;8.40;;;16.20;99.90;15.70;96512.00;;;;5082059;28;20698;-65
2021/07/07 03:32:11;;;;;;;9.57;7.83;;;16.20;99.90;15.80;96516.00;;;;5086839;28;20229;-65
2021/07/07 03:35:00;;;;;;;9.87;8.40;;;16.10;99.90;15.80;96519.00;;;;5086924;28;20282;-64
2021/07/07 03:37:51;;;;;;;8.87;7.97;;;16.10;99.90;15.70;96521.00;;;;5086868;28;20207;-65
2021/07/07 03:40:42;;;;;;;11.83;7.30;;;16.10;99.90;15.80;96524.00;;;;5086283;28;20674;-66
2021/07/07 03:43:31;;;;;;;12.03;8.07;;;16.10;99.90;15.80;96528.00;;;;5085681;28;20571;-67
2021/07/07 03:46:20;;;;;;;9.37;7.37;;;16.10;99.90;15.90;96530.00;;;;5086108;28;20495;-63
2021/07/07 03:49:09;;;;;;;11.27;8.13;;;16.10;99.90;15.70;96530.00;;;;5074137;28;20279;-66
2021/07/07 03:51:58;;;;;;;10.90;8.17;;;16.10;99.90;15.80;96538.00;;;;5085428;28;20712;-63
2021/07/07 03:54:48;;;;;;;10.13;9.10;;;16.10;99.90;16.00;96540.00;;;;5086347;28;20211;-66
2021/07/07 03:57:37;;;;;;;10.20;7.70;;;16.20;99.90;15.90;96541.00;;;;5075888;28;20527;-66
2021/07/07 04:00:27;;;;;;;9.40;7.83;;;16.20;99.90;15.90;96531.00;;;;5084558;28;20230;-66
2021/07/07 04:03:16;;;;;;;12.87;8.43;;;16.20;99.90;16.10;96542.00;;;;5085437;28;20223;-66
2021/07/07 04:06:05;;;;;;;12.57;8.33;;;16.30;99.90;16.20;96547.00;;;;5085438;28;20195;-65
2021/07/07 04:08:54;;;;;;;9.03;7.27;;;16.30;99.90;16.10;96545.00;;;;5073147;28;20218;-66
2021/07/07 04:11:44;;;;;;;9.57;7.47;;;16.40;99.90;15.90;96543.00;;;;5085294;28;20242;-65
2021/07/07 04:14:33;;;;;;;8.87;7.73;;;16.40;99.90;15.90;96551.00;;;;5081863;28;20207;-64
2021/07/07 04:17:22;;;;;;;10.87;8.03;;;16.30;99.90;16.10;96553.00;;;;5079462;28;20666;-64
2021/07/07 04:20:16;;;;;;;11.83;8.13;;;16.30;99.90;16.20;96561.00;;;;5085250;28;20215;-65
2021/07/07 04:23:05;;;;;;;10.23;7.00;;;16.40;99.90;16.20;96559.00;;;;5085023;28;20219;-65
2021/07/07 04:25:53;;;;;;;12.27;8.27;;;16.40;99.90;16.10;96567.00;;;;5086069;28;20203;-66
2021/07/07 04:28:44;;;;;;;10.27;7.67;;;16.40;99.90;16.20;96562.00;;;;5085456;28;20199;-65
2021/07/07 04:31:33;;;;;;;8.83;7.77;;;16.50;99.90;16.40;96565.00;;;;5084474;28;20721;-64
2021/07/07 04:34:22;;;;;;;9.97;8.40;;;16.50;99.90;16.50;96578.00;;;;5084476;28;20210;-67
2021/07/07 04:37:11;;;;;;;8.37;7.33;;;16.60;99.90;16.60;96576.00;;;;5084822;28;20215;-67
2021/07/07 04:39:59;;;;;;;10.43;8.60;;;16.70;99.90;16.70;96577.00;;;;5084927;28;20195;-65
2021/07/07 04:42:51;;;;;;;8.93;7.73;;;16.80;99.90;16.90;96583.00;;;;5084374;28;20603;-66
2021/07/07 04:45:41;;;;;;;9.10;8.00;;;16.90;99.90;17.10;96585.00;;;;5081404;28;20202;-65
2021/07/07 04:48:30;;;;;;;9.47;6.73;;;17.00;99.90;17.20;96585.00;;;;5080891;28;20203;-65
2021/07/07 04:51:19;;;;;;;8.00;6.90;;;17.20;99.90;17.40;96582.00;;;;5087423;28;20575;-66
2021/07/07 04:54:08;;;;;;;8.03;7.00;;;17.30;99.90;17.60;96584.00;;;;5074189;28;20207;-63
2021/07/07 04:56:57;;;;;;;7.93;7.13;;;17.50;99.90;17.70;96586.00;;;;5072070;28;20265;-66
2021/07/07 04:59:46;;;;;;;7.73;6.57;;;17.60;99.90;17.80;96585.00;;;;5082290;28;20203;-62
2021/07/07 05:02:36;;;;;;;7.80;7.00;;;17.80;99.90;17.70;96589.00;;;;5084333;28;20234;-65
2021/07/07 05:05:25;;;;;;;8.93;7.37;;;17.90;99.90;17.80;96585.00;;;;5084734;28;20199;-65
2021/07/07 05:08:15;;;;;;;9.83;7.53;;;18.00;99.90;17.80;96583.00;;;;5085166;28;20207;-66
2021/07/07 05:11:04;;;;;;;8.80;7.57;;;18.00;99.90;18.10;96589.00;;;;5077655;28;20686;-66
2021/07/07 05:13:53;;;;;;;7.50;6.73;;;18.10;99.90;18.20;96591.00;;;;5080150;28;20639;-66
2021/07/07 05:16:42;;;;;;;7.73;6.93;;;18.20;99.90;18.30;96598.00;;;;5078489;28;20207;-65
2021/07/07 05:19:33;;;;;;;7.53;6.73;;;18.40;99.90;18.50;96598.00;;;;5077523;28;20324;-66
2021/07/07 05:22:22;;;;;;;7.20;6.10;;;18.50;99.90;18.60;96597.00;;;;5083737;28;20239;-62
2021/07/07 05:25:12;;;;;;;8.97;6.97;;;18.60;99.90;18.80;96606.00;;;;5084183;28;20671;-67
2021/07/07 05:28:02;;;;;;;8.73;6.80;;;18.70;99.90;19.00;96608.00;;;;5083698;28;20700;-66
2021/07/07 05:30:51;;;;;;;10.27;6.70;;;18.90;99.90;19.10;96606.00;;;;5073552;28;20242;-63
2021/07/07 05:33:40;;;;;;;7.47;6.67;;;19.10;99.90;19.20;96608.00;;;;5070729;28;20199;-65
2021/07/07 05:36:30;;;;;;;9.10;7.90;;;19.20;99.90;19.30;96605.00;;;;5075142;28;20211;-65
2021/07/07 05:39:19;;;;;;;10.47;8.07;;;19.30;99.90;19.50;96606.00;;;;5066502;28;20259;-63
2021/07/07 05:42:18;;;;;;;8.93;7.30;;;19.40;99.90;19.60;96609.00;;;;5088929;28;20479;-65
2021/07/07 05:45:08;;;;;;;9.90;7.63;;;19.60;99.90;19.70;96609.00;;;;5083725;28;20211;-65
2021/07/07 05:47:58;;;;;;;9.43;6.83;;;19.70;99.90;20.00;96612.00;;;;5066753;28;20207;-64
2021/07/07 05:50:49;;;;;;;7.90;7.10;;;19.80;99.90;20.20;96618.00;;;;5073239;28;20817;-67
2021/07/07 05:53:40;;;;;;;8.87;7.57;;;20.00;99.90;20.50;96617.00;;;;5080512;28;20275;-65
2021/07/07 05:56:29;;;;;;;9.80;7.60;;;20.20;99.90;20.70;96606.00;;;;5079650;28;20198;-65
2021/07/07 05:59:17;;;;;;;13.27;7.70;;;20.40;99.90;20.90;96610.00;;;;5098097;28;20225;-63
2021/07/07 06:02:06;;;;;;;9.67;7.53;;;20.60;99.90;21.00;96606.00;;;;5093297;28;20527;-68
2021/07/07 06:04:55;;;;;;;13.17;6.47;;;20.80;99.90;21.10;96612.00;;;;5095039;28;20199;-65
2021/07/07 06:07:44;;;;;;;9.87;7.30;;;21.00;99.90;21.50;96613.00;;;;5066645;28;20195;-65
2021/07/07 06:10:35;;;;;;;11.50;7.43;;;21.10;99.90;21.70;96616.00;;;;5093931;28;21263;-65
2021/07/07 06:13:24;;;;;;;9.10;6.73;;;21.30;99.90;22.00;96610.00;;;;5096398;28;20213;-63
2021/07/07 06:16:12;;;;;;;15.53;7.27;;;21.60;99.90;22.10;96617.00;;;;5090745;28;20198;-66
2021/07/07 06:19:01;;;;;;;8.20;7.17;;;21.80;99.90;22.20;96618.00;;;;5090020;28;20203;-68
2021/07/07 06:21:50;;;;;;;9.13;7.30;;;22.00;99.90;22.50;96623.00;;;;5092633;28;20421;-65
2021/07/07 06:24:39;;;;;;;12.27;7.37;;;22.20;99.90;22.70;96618.00;;;;5100422;28;20690;-65
2021/07/07 06:27:30;;;;;;;10.73;7.07;;;22.40;99.90;22.70;96616.00;;;;5090061;28;20385;-64
2021/07/07 06:30:21;;;;;;;14.27;6.83;;;22.50;99.90;23.00;96614.00;;;;5096247;28;20572;-63
2021/07/07 06:33:11;;;;;;;8.27;7.43;;;22.70;99.90;23.10;96620.00;;;;5094982;28;20778;-63
2021/07/07 06:36:00;;;;;;;11.23;7.37;;;22.80;99.90;23.40;96624.00;;;;5086446;28;20203;-68
2021/07/07 06:38:49;;;;;;;10.00;6.27;;;23.00;99.90;23.60;96620.00;;;;5096827;28;20259;-66
2021/07/07 06:41:38;;;;;;;9.73;7.27;;;23.20;99.90;23.80;96617.00;;;;5097310;28;20573;-67
2021/07/07 06:44:28;;;;;;;10.80;6.47;;;23.40;99.90;24.00;96620.00;;;;5082866;28;20207;-66
2021/07/07 06:47:17;;;;;;;8.90;7.30;;;23.60;99.90;24.10;96625.00;;;;5083393;28;20697;-65
2021/07/07 06:50:09;;;;;;;10.43;6.30;;;23.80;99.90;24.30;96625.00;;;;5088993;28;20706;-67
2021/07/07 06:52:58;;;;;;;9.60;6.30;;;23.90;99.90;24.40;96622.00;;;;5090178;28;20939;-65
2021/07/07 06:55:47;;;;;;;6.50;5.90;;;24.10;99.90;24.60;96631.00;;;;5090651;28;20221;-66
2021/07/07 06:58:36;;;;;;;8.07;6.33;;;24.30;99.90;24.80;96620.00;;;;5096462;28;20195;-66
2021/07/07 07:01:26;;;;;;;9.70;5.60;;;24.40;99.90;25.00;96627.00;;;;5096103;28;20226;-66
2021/07/07 07:04:15;;;;;;;8.30;6.20;;;24.60;99.90;25.10;96623.00;;;;5100717;28;20199;-64
2021/07/07 07:07:05;;;;;;;7.47;6.43;;;24.80;99.90;25.20;96622.00;;;;5098783;28;20205;-66
2021/07/07 07:09:54;;;;;;;9.20;5.83;;;24.90;99.90;25.40;96627.00;;;;5098729;28;20207;-62
2021/07/07 07:12:43;;;;;;;8.93;6.60;;;25.10;99.90;25.60;96625.00;;;;5089124;28;20388;-64
2021/07/07 07:15:33;;;;;;;7.93;5.20;;;25.20;99.90;25.80;96622.00;;;;5080879;28;20277;-65
2021/07/07 07:18:23;;;;;;;7.30;5.20;;;25.40;99.90;25.90;96623.00;;;;5094788;28;20677;-65
2021/07/07 07:21:12;;;;;;;7.93;5.97;;;25.60;99.90;26.10;96627.00;;;;5087856;28;20213;-65
2021/07/07 07:24:01;;;;;;;10.10;5.60;;;25.70;99.90;26.20;96626.00;;;;5084815;28;20464;-65
2021/07/07 07:26:50;;;;;;;8.87;5.77;;;25.80;99.90;26.40;96624.00;;;;5083066;28;20659;-64
2021/07/07 07:29:39;;;;;;;7.50;6.07;;;26.00;99.90;26.40;96630.00;;;;5096159;28;20603;-65
2021/07/07 07:32:28;;;;;;;6.93;5.20;;;26.10;99.90;26.60;96632.00;;;;5087692;28;20795;-65
2021/07/07 07:35:21;;;;;;;6.30;5.40;;;26.30;99.90;26.70;96637.00;;;;5086614;28;20681;-64
2021/07/07 07:38:14;;;;;;;6.23;4.50;;;26.40;99.90;26.80;96640.00;;;;5084166;28;20233;-64
2021/07/07 07:41:03;;;;;;;6.50;5.77;;;26.50;99.90;26.90;96638.00;;;;5092443;28;20390;-67
2021/07/07 07:43:52;;;;;;;6.00;5.00;;;26.60;99.90;27.10;96637.00;;;;5100482;28;20221;-67
2021/07/07 07:46:40;;;;;;;6.30;5.53;;;26.70;99.90;26.90;96647.00;;;;5081548;28;20591;-64
2021/07/07 07:49:29;;;;;;;6.33;5.10;;;26.80;99.90;27.00;96647.00;;;;5098382;28;20206;-67
2021/07/07 07:52:20;;;;;;;6.47;5.87;;;26.90;99.90;27.30;96653.00;;;;5084329;28;20227;-63
2021/07/07 07:55:11;;;;;;;5.43;4.93;;;27.00;99.90;27.40;96650.00;;;;5096182;28;20204;-67
2021/07/07 07:58:00;;;;;;;6.37;5.77;;;27.10;99.90;27.60;96659.00;;;;5099268;28;20207;-64
2021/07/07 08:00:50;;;;;;;6.50;5.70;;;27.20;99.90;27.70;96659.00;;;;5095044;28;20698;-62
2021/07/07 08:03:39;;;;;;;7.27;6.43;;;27.30;99.90;27.90;96658.00;;;;5087906;28;20255;-64
2021/07/07 08:06:28;;;;;;;6.60;6.00;;;27.50;99.90;27.80;96659.00;;;;5086792;28;20764;-66
2021/07/07 08:09:19;;;;;;;7.90;6.77;;;27.60;99.90;28.10;96658.00;;;;5082674;28;20217;-65
2021/07/07 08:12:08;;;;;;;6.30;5.70;;;27.70;99.40;28.20;96667.00;;;;5098800;28;20244;-67
2021/07/07 08:14:57;;;;;;;8.37;5.53;;;27.90;99.30;28.40;96675.00;;;;5067903;28;20305;-65
2021/07/07 08:17:46;;;;;;;5.90;5.40;;;28.00;99.10;28.50;96676.00;;;;5077766;28;20578;-65
2021/07/07 08:20:35;;;;;;;6.50;5.30;;;28.10;98.00;28.60;96671.00;;;;5083880;28;20217;-65
2021/07/07 08:23:25;;;;;;;5.73;5.13;;;28.30;97.00;28.80;96671.00;;;;5076278;28;20584;-65
2021/07/07 08:26:15;;;;;;;6.00;4.80;;;28.40;96.30;28.80;96677.00;;;;5098171;28;20211;-65
2021/07/07 08:29:04;;;;;;;8.13;5.20;;;28.60;94.70;28.90;96685.00;;;;5087016;28;20602;-65
2021/07/07 08:31:53;;;;;;;5.23;4.73;;;28.70;92.80;28.60;96679.00;;;;5085671;28;20222;-65
2021/07/07 08:34:42;;;;;;;7.07;5.50;;;28.70;91.90;29.10;96684.00;;;;5084187;28;20353;-67
2021/07/07 08:37:31;;;;;;;4.50;4.07;;;28.70;92.60;29.20;96680.00;;;;5090619;28;20198;-67
2021/07/07 08:40:22;;;;;;;5.87;4.90;;;28.80;91.70;29.30;96691.00;;;;5098511;28;20203;-65
2021/07/07 08:43:12;;;;;;;5.63;4.63;;;28.90;91.20;29.40;96688.00;;;;5097096;28;20713;-67
2021/07/07 08:46:02;;;;;;;5.17;4.40;;;29.10;90.80;29.60;96682.00;;;;5078372;28;20203;-66
2021/07/07 08:48:50;;;;;;;5.80;5.30;;;29.20;90.50;29.40;96685.00;;;;5084852;28;20636;-65
2021/07/07 08:51:41;;;;;;;7.93;5.17;;;29.30;88.90;29.80;96682.00;;;;5081137;28;20766;-66
2021/07/07 08:54:31;;;;;;;5.67;5.20;;;29.40;88.00;29.60;96686.00;;;;5075369;28;20668;-67
2021/07/07 08:57:22;;;;;;;6.27;5.73;;;29.40;89.00;29.10;96689.00;;;;5082890;28;20196;-66
2021/07/07 09:00:16;;;;;;;5.47;4.97;;;29.40;86.10;29.40;96687.00;;;;5098248;28;20210;-65
2021/07/07 09:03:10;;;;;;;5.13;4.63;;;29.30;85.80;29.70;96695.00;;;;5095586;28;20299;-65
2021/07/07 09:06:02;;;;;;;6.37;5.47;;;29.40;86.80;29.90;96696.00;;;;5091232;28;20226;-65
2021/07/07 09:08:51;;;;;;;4.97;4.57;;;29.60;84.20;29.70;96691.00;;;;5080285;28;20886;-65
2021/07/07 09:11:43;;;;;;;4.93;4.53;;;29.70;80.20;30.40;96694.00;;;;5076683;28;20227;-67
2021/07/07 09:14:33;;;;;;;5.00;4.43;;;29.80;82.40;30.60;96699.00;;;;5083820;28;20213;-67
2021/07/07 09:17:23;;;;;;;4.57;4.17;;;30.00;79.80;30.80;96699.00;;;;5097820;28;20565;-65
2021/07/07 09:20:21;;;;;;;9.10;4.45;;;30.20;78.70;30.80;96689.00;;;;5078140;28;20218;-66
2021/07/07 09:23:20;;;;;;;4.07;3.78;;;30.40;77.70;31.20;96691.00;;;;5084205;28;20225;-67
2021/07/07 09:26:09;;;;;;;5.15;4.18;;;30.50;77.50;31.50;96691.00;;;;5078000;28;20220;-65
2021/07/07 09:28:58;;;;;;;4.13;3.72;;;30.80;77.50;31.70;96690.00;;;;5076654;28;20217;-68
2021/07/07 09:31:47;;;;;;;3.78;3.47;;;31.00;75.70;31.90;96698.00;;;;5077833;28;20228;-65
2021/07/07 09:34:40;;;;;;;4.60;4.20;;;31.20;74.40;31.90;96695.00;;;;5083676;28;20590;-65
2021/07/07 09:37:34;;;;;;;5.10;4.60;;;31.30;73.30;31.80;96688.00;;;;5087505;28;20206;-65
2021/07/07 09:40:24;;;;;;;5.93;4.40;;;31.40;71.70;31.90;96684.00;;;;5092580;28;20205;-65
2021/07/07 09:43:14;;;;;;;7.18;4.90;;;31.50;72.50;32.20;96691.00;;;;5081637;28;20230;-65
2021/07/07 09:46:14;;;;;;;4.25;3.90;;;31.60;72.30;32.20;96701.00;;;;5097293;28;20268;-64
2021/07/07 09:49:03;;;;;;;4.38;4.07;;;31.80;70.50;32.40;96701.00;;;;5086031;28;20287;-66
2021/07/07 09:51:53;;;;;;;3.58;3.28;;;31.90;69.60;32.40;96700.00;;;;5085704;28;20241;-65
2021/07/07 09:54:44;;;;;;;5.53;4.72;;;32.00;69.00;32.60;96701.00;;;;5087951;28;20200;-64
2021/07/07 09:57:33;;;;;;;4.47;4.18;;;32.00;69.10;32.80;96699.00;;;;5079769;28;20838;-64
2021/07/07 10:00:24;;;;;;;5.20;4.55;;;32.20;69.00;32.90;96690.00;;;;5097429;28;20200;-65
2021/07/07 10:03:13;;;;;;;5.07;4.68;;;32.30;69.00;32.50;96692.00;;;;5071357;28;20623;-63
2021/07/07 10:06:03;;;;;;;4.78;3.83;;;32.40;65.50;32.50;96690.00;;;;5081100;28;20203;-64
2021/07/07 10:08:54;;;;;;;5.32;4.82;;;32.30;68.30;32.40;96704.00;;;;5083623;28;20560;-65
2021/07/07 10:11:43;;;;;;;5.15;4.75;;;32.30;64.30;32.50;96694.00;;;;5082598;28;20338;-65
2021/07/07 10:14:33;;;;;;;5.78;4.55;;;32.30;66.40;32.20;96684.00;;;;5085025;28;20206;-68
2021/07/07 10:17:23;;;;;;;6.38;5.20;;;32.30;66.60;32.70;96691.00;;;;5077566;28;20200;-67
2021/07/07 10:20:14;;;;;;;5.85;5.35;;;32.30;67.90;33.10;96680.00;;;;5090043;28;20202;-66
2021/07/07 10:23:08;;;;;;;6.25;5.63;;;32.40;68.30;33.50;96682.00;;;;5092427;28;20229;-65
2021/07/07 10:25:59;;;;;;;6.00;5.50;;;32.60;69.10;33.60;96690.00;;;;5060003;28;20199;-64
2021/07/07 10:28:50;;;;;;;5.50;5.00;;;32.80;68.60;33.50;96695.00;;;;5094705;28;20194;-67
2021/07/07 10:31:47;;;;;;;6.00;5.50;;;33.00;66.50;33.80;96708.00;;;;5084455;28;20222;-64
2021/07/07 10:34:38;;;;;;;6.63;5.07;;;33.10;67.30;33.20;96696.00;;;;5097179;28;20203;-67
2021/07/07 10:37:28;;;;;;;5.53;5.03;;;33.30;65.40;33.50;96687.00;;;;5095313;28;20205;-65
2021/07/07 10:40:26;;;;;;;5.15;4.72;;;33.20;65.30;32.00;96679.00;;;;5090798;28;20201;-65
2021/07/07 10:43:28;;;;;;;5.32;4.80;;;32.80;64.40;33.00;96658.00;;;;5100017;28;20214;-66
2021/07/07 10:46:50;;;;;;;8.98;4.93;;;32.70;65.80;33.40;96681.00;;;;5094701;28;20201;-65
2021/07/07 10:49:41;;;;;;;5.97;5.43;;;32.80;65.30;33.70;96686.00;;;;5085073;28;20199;-67
2021/07/07 10:52:42;;;;;;;5.53;5.03;;;33.00;64.80;33.80;96683.00;;;;5083931;28;20687;-67
2021/07/07 10:55:42;;;;;;;5.60;4.75;;;33.20;64.60;32.90;96691.00;;;;5083562;28;20547;-66
2021/07/07 10:58:35;;;;;;;5.15;4.75;;;33.10;62.30;32.90;96688.00;;;;5077090;28;20199;-66
2021/07/07 11:01:38;;;;;;;7.82;4.95;;;32.90;62.70;34.10;96684.00;;;;5079632;28;20222;-66
2021/07/07 11:04:35;;;;;;;5.38;4.88;;;33.10;64.10;34.40;96688.00;;;;5084613;28;20222;-67
2021/07/07 11:07:38;;;;;;;4.97;4.57;;;33.30;65.60;33.50;96679.00;;;;5075047;28;20210;-66
2021/07/07 11:10:27;;;;;;;5.53;5.00;;;33.40;61.50;33.10;96685.00;;;;5073525;28;20316;-68
2021/07/07 11:13:16;;;;;;;5.53;5.03;;;33.20;62.60;34.30;96690.00;;;;5093514;28;20239;-66
2021/07/07 11:16:13;;;;;;;4.85;4.22;;;33.40;63.80;34.50;96685.00;;;;5090644;28;20202;-69
2021/07/07 11:19:42;;;;;;;5.50;5.00;;;33.60;63.70;34.50;96682.00;;;;5082202;28;20199;-66
2021/07/07 11:22:31;;;;;;;5.82;5.32;;;33.80;63.10;34.70;96681.00;;;;5076180;28;20227;-68
2021/07/07 11:25:20;;;;;;;5.90;5.07;;;34.10;62.30;35.00;96696.00;;;;5094130;28;20213;-69
2021/07/07 11:28:15;;;;;;;5.07;4.57;;;34.30;60.90;35.60;96681.00;;;;5099315;28;20211;-68
2021/07/07 11:31:05;;;;;;;5.95;5.00;;;34.60;62.10;35.30;96682.00;;;;5076873;28;20199;-65
2021/07/07 11:34:01;;;;;;;5.13;4.63;;;34.70;60.00;35.60;96674.00;;;;5071249;28;20209;-68
2021/07/07 11:36:50;;;;;;;5.28;4.88;;;34.90;60.10;34.60;96680.00;;;;5090902;28;20210;-65
2021/07/07 11:39:39;;;;;;;5.75;5.25;;;35.10;59.00;33.10;96657.00;;;;5081853;28;20207;-65
2021/07/07 11:42:28;;;;;;;7.03;5.13;;;34.80;59.00;34.10;96665.00;;;;5099648;28;20635;-66
2021/07/07 11:45:21;;;;;;;5.65;5.15;;;34.30;60.10;35.30;96669.00;;;;5087138;28;20226;-64
2021/07/07 11:48:14;;;;;;;5.43;4.95;;;34.50;61.60;36.30;96721.00;;;;5082703;28;20199;-64
2021/07/07 11:51:10;;;;;;;5.03;4.63;;;34.70;62.60;35.30;96673.00;;;;5094945;28;20238;-66
2021/07/07 11:53:59;;;;;;;5.47;4.97;;;35.00;59.90;35.50;96686.00;;;;5082432;28;20221;-67
2021/07/07 11:56:48;;;;;;;5.68;5.25;;;35.10;59.90;34.00;96676.00;;;;5096105;28;20218;-65
2021/07/07 11:59:36;;;;;;;5.75;5.32;;;35.00;57.40;34.90;96672.00;;;;5085277;28;20196;-67
2021/07/07 12:02:27;;;;;;;6.35;5.85;;;35.00;58.60;34.00;96662.00;;;;5092844;28;20218;-68
2021/07/07 12:05:15;;;;;;;6.97;5.38;;;34.80;57.40;34.00;96663.00;;;;5088168;28;20214;-70
2021/07/07 12:08:17;;;;;;;9.13;5.75;;;34.50;58.50;34.40;96668.00;;;;5095803;28;20206;-67
2021/07/07 12:11:13;;;;;;;5.65;4.95;;;34.30;59.00;35.40;96668.00;;;;5087900;28;20556;-66
2021/07/07 12:14:10;;;;;;;5.20;4.75;;;34.50;60.10;36.40;96664.00;;;;5081075;28;20199;-67
2021/07/07 12:17:00;;;;;;;6.50;4.78;;;35.00;59.70;36.80;96665.00;;;;5091377;28;20206;-68
2021/07/07 12:19:48;;;;;;;5.30;4.80;;;35.40;59.10;35.50;96697.00;;;;5086833;28;20200;-67
2021/07/07 12:22:38;;;;;;;6.65;5.20;;;35.60;58.40;36.50;96671.00;;;;5080626;28;20223;-67
2021/07/07 12:25:29;;;;;;;5.15;4.80;;;35.70;56.90;35.70;96671.00;;;;5088056;28;20223;-68
2021/07/07 12:28:18;;;;;;;5.30;4.80;;;35.50;57.00;36.70;96671.00;;;;5082182;28;20199;-71
2021/07/07 12:31:06;;;;;;;5.13;4.72;;;35.70;58.30;36.10;96673.00;;;;5081932;28;20581;-67
2021/07/07 12:33:56;;;;;;;5.97;4.93;;;35.70;56.60;36.80;96672.00;;;;5083915;28;20199;-69